Accueil
METAR-TAF:

METAR-TAF

Aéroports :

Aérodrome de Tétouan - Sania R'mel

Tétouan, Maroc

latitude: 35-35N, longitude: 005-20W, altitude: 10 m

Observation

Le bulletin a été fait il y a 1 heure et 0 minutes, à 10:00 UTC
Vent 10 kt de ouest, variant entre sud/sud-ouest et nord-ouest
Température 26°C
Humidité 54%
Pression 1014 hPa
Visibilité 10 km ou plus
pas de nuages en-dessous de 1500 mètres et pas de cumulonimbus.

METAR: GMTN 051000Z 26010KT 200V310 CAVOK 26/16 Q1014 NOSIG

Heure: 12:00 (11:00 UTC)


TAF: absent

Observations et prévisions météorologiques de plus de 4000 aéroports (messages METAR et TAF).

Les stations disponibles sont représentées par des disques jaunes et rouges sur la carte.

Passer la souris dessus pour voir le nom de la station.

Cliquer dessus pour voir les observations et prévisions météorologiques.

Pour changer de carte: cliquez sur les boutons verts avec une croix noire pour zoomer, sur le bouton vert avec un tiret pour effectuer un zoom arrière, ou sur les flèches vertes pour les cartes adjacentes.


METAR-TAF: